Aeroporto :
LOGIN :

Iscrizione | Disclaimer

   EN    FR    IT 

 










Sommario :    VFR   VFR Marginale   IFR   IFR Intensivo   IFR Molto Intensivo
Visibilità : 
Base nubi : 
>= 8 km
>= 3000ft
5 / 8 km
1000 / 3000 ft
1500m / 5 km
500 / 1000 ft
800 / 1500m
200 / 500 ft
< 800m
< 200 ft
Simboli :   Temporali  Nebbia  Neve Forte  Precipitazioni Forti  Vento > 20 kt
SIGMETs :   Varie  Temporali  Ghiacco  Turbolenza  Onda orograficha  Ceneri Vulcaniche






- Altitudine del aeroporto : 53 ft
- Codice IATA : HAM


EDDH - Hamburg

ULTIMO METAR :
  • 170950Z 11003KT CAVOK 03/01 Q1015 R88/710195 NOSIG

METARs OBSOLETI :
  • 170920Z 14003KT CAVOK 02/01 Q1015 R88/710195 NOSIG
  • 170850Z 10004KT 070V150 CAVOK 01/00 Q1015 R88/710195 NOSIG
  • 170820Z 11004KT 070V130 9000 NSC 01/M00 Q1015 R88/710195 NOSIG
  • 170750Z 13004KT 080V170 9000 NSC 01/M00 Q1015 R88/710195 NOSIG
  • 170720Z 15006KT 8000 NSC 00/M01 Q1015 R88/710195 NOSIG

TAF TAF EDDH
Valido dal 17 a 06 ore il 18 a 12 ore UTC


170500Z 1706/1812 14005KT CAVOK
PROB30
TEMPO 1706/1709 2500 BCFG
BECMG 1710/1712 04008KT
BECMG 1717/1720 3500 -RADZ OVC012
TEMPO 1719/1806 2500 -DZ BR BKN004
BECMG 1806/1809 11005KT 9999



MetMap, La meteo Aeronautica in un colpo d'occhio ! - Copyright ORBIFLY Dicembre 2007 - Disclaimer

ORBIFLY MET'MAP TEAM :

Programmazione e sviluppo : Alexandra Zaïnal
Concezione e sviluppo : Baudouin d'Aumeries
Co-Programmazione e sviluppo : Marc-Olivier Méhu
Supporto tecnico e logistico : Manuel Goepfert
Aiuto per la traduzione : Arnaldo La Scala

Contatto : metmap@orbifly.com




FONTI E CREDITI :

   NOAA